createdAt,value
2017-10-21T00:00:47.671Z,9.00
2017-10-21T00:03:16.578Z,8.70
2017-10-21T00:05:45.451Z,7.97
2017-10-21T00:08:14.318Z,8.30
2017-10-21T00:10:43.188Z,8.60
2017-10-21T00:13:12.035Z,7.43
2017-10-21T00:15:40.908Z,7.20
2017-10-21T00:18:09.763Z,7.47
2017-10-21T00:20:38.639Z,7.73
2017-10-21T00:23:07.499Z,7.10
2017-10-21T00:25:36.418Z,8.67
2017-10-21T00:28:05.291Z,8.63
2017-10-21T00:30:34.152Z,8.23
2017-10-21T00:33:03.004Z,8.80
2017-10-21T00:35:31.877Z,8.33
2017-10-21T00:38:00.731Z,7.40
2017-10-21T00:40:29.600Z,7.70
2017-10-21T00:42:58.444Z,7.70
2017-10-21T00:45:27.318Z,8.00
2017-10-21T00:47:56.187Z,8.07
2017-10-21T00:50:25.059Z,7.03
2017-10-21T00:52:53.910Z,7.90
2017-10-21T00:55:22.770Z,7.40
2017-10-21T00:57:51.624Z,7.30
2017-10-21T01:00:20.520Z,7.00
2017-10-21T01:02:49.381Z,8.90
2017-10-21T01:05:18.299Z,7.80
2017-10-21T01:07:47.159Z,7.10
2017-10-21T01:10:16.010Z,8.00
2017-10-21T01:12:44.903Z,8.47
2017-10-21T01:15:13.747Z,9.03
2017-10-21T01:17:42.617Z,7.30
2017-10-21T01:20:11.467Z,8.77
2017-10-21T01:22:40.334Z,6.70
2017-10-21T01:25:09.178Z,7.83
2017-10-21T01:27:38.046Z,7.20
2017-10-21T01:30:06.899Z,7.37
2017-10-21T01:32:35.765Z,6.47
2017-10-21T01:35:04.615Z,8.40
2017-10-21T01:37:33.497Z,7.47
2017-10-21T01:40:02.355Z,8.40
2017-10-21T01:42:31.199Z,8.70
2017-10-21T01:45:00.066Z,6.33
2017-10-21T01:47:28.923Z,7.47
2017-10-21T01:49:57.786Z,6.77
2017-10-21T01:52:26.631Z,6.80
2017-10-21T01:54:55.566Z,6.90
2017-10-21T01:57:24.414Z,7.00
2017-10-21T01:59:53.307Z,7.70
2017-10-21T02:02:22.167Z,6.80
2017-10-21T02:04:51.016Z,6.60
2017-10-21T02:07:19.869Z,6.67
2017-10-21T02:09:48.750Z,7.00
2017-10-21T02:12:17.610Z,6.90
2017-10-21T02:14:46.450Z,6.67
2017-10-21T02:17:15.411Z,7.10
2017-10-21T02:19:44.356Z,6.40
2017-10-21T02:22:13.223Z,7.30
2017-10-21T02:24:42.073Z,6.77
2017-10-21T02:27:10.946Z,7.43
2017-10-21T02:29:39.810Z,7.00
2017-10-21T02:32:08.663Z,6.03
2017-10-21T02:34:37.531Z,7.83
2017-10-21T02:37:06.374Z,6.60
2017-10-21T02:39:35.255Z,8.27
2017-10-21T02:42:04.097Z,7.20
2017-10-21T02:44:32.980Z,7.57
2017-10-21T02:47:01.864Z,6.40
2017-10-21T02:49:30.915Z,6.63
2017-10-21T02:51:59.767Z,7.60
2017-10-21T02:54:28.619Z,7.27
2017-10-21T02:56:57.484Z,7.37
2017-10-21T02:59:26.342Z,7.60
2017-10-21T03:01:55.213Z,6.93
2017-10-21T03:04:24.062Z,6.97
2017-10-21T03:06:52.930Z,6.63
2017-10-21T03:09:21.801Z,6.67
2017-10-21T03:11:50.675Z,8.13
2017-10-21T03:14:19.539Z,6.77
2017-10-21T03:16:48.459Z,6.00
2017-10-21T03:19:17.320Z,7.50
2017-10-21T03:21:46.200Z,6.50
2017-10-21T03:24:15.054Z,7.20
2017-10-21T03:26:43.914Z,6.60
2017-10-21T03:29:12.772Z,6.43
2017-10-21T03:31:41.643Z,6.07
2017-10-21T03:34:10.517Z,6.93
2017-10-21T03:36:39.398Z,6.87
2017-10-21T03:39:08.252Z,6.43
2017-10-21T03:41:37.291Z,6.57
2017-10-21T03:44:06.138Z,6.30
2017-10-21T03:46:35.010Z,6.63
2017-10-21T03:49:03.895Z,6.47
2017-10-21T03:51:32.756Z,7.37
2017-10-21T03:54:01.594Z,6.57
2017-10-21T03:56:30.486Z,6.87
2017-10-21T03:58:59.354Z,6.10
2017-10-21T04:01:28.206Z,6.63
2017-10-21T04:03:57.075Z,6.10
2017-10-21T04:06:25.939Z,6.83
2017-10-21T04:08:54.857Z,6.97
2017-10-21T04:11:23.710Z,6.97
2017-10-21T04:13:52.574Z,6.67
2017-10-21T04:16:21.439Z,6.57
2017-10-21T04:18:50.348Z,6.50
2017-10-21T04:21:19.193Z,6.00
2017-10-21T04:23:48.038Z,6.23
2017-10-21T04:26:16.899Z,7.00
2017-10-21T04:28:45.759Z,8.73
2017-10-21T04:31:14.636Z,7.60
2017-10-21T04:33:43.500Z,7.70
2017-10-21T04:36:12.376Z,6.93
2017-10-21T04:38:41.229Z,7.20
2017-10-21T04:41:10.129Z,7.63
2017-10-21T04:43:38.987Z,7.20
2017-10-21T04:46:07.842Z,7.60
2017-10-21T04:48:36.713Z,7.40
2017-10-21T04:51:05.577Z,7.37
2017-10-21T04:53:34.466Z,7.20
2017-10-21T04:56:03.316Z,8.70
2017-10-21T04:58:32.196Z,7.57
2017-10-21T05:01:01.047Z,8.67
2017-10-21T05:03:29.920Z,8.43
2017-10-21T05:05:58.776Z,7.73
2017-10-21T05:08:27.652Z,8.80
2017-10-21T05:10:56.510Z,9.10
2017-10-21T05:13:25.378Z,9.23
2017-10-21T05:15:54.246Z,8.20
2017-10-21T05:18:23.125Z,10.70
2017-10-21T05:20:52.003Z,8.63
2017-10-21T05:23:20.854Z,7.10
2017-10-21T05:25:49.748Z,8.17
2017-10-21T05:28:18.610Z,8.23
2017-10-21T05:30:47.530Z,7.87
2017-10-21T05:33:16.378Z,9.40
2017-10-21T05:35:45.231Z,7.97
2017-10-21T05:38:14.097Z,8.73
2017-10-21T05:40:42.953Z,8.10
2017-10-21T05:43:11.824Z,7.70
2017-10-21T05:45:40.680Z,8.00
2017-10-21T05:48:09.587Z,9.33
2017-10-21T05:50:38.435Z,7.83
2017-10-21T05:53:07.286Z,9.10
2017-10-21T05:55:36.172Z,8.40
2017-10-21T05:58:05.026Z,8.23
2017-10-21T06:00:33.893Z,8.83
2017-10-21T06:03:02.744Z,10.70
2017-10-21T06:05:31.598Z,9.80
2017-10-21T06:08:00.458Z,11.07
2017-10-21T06:10:29.297Z,9.97
2017-10-21T06:12:58.181Z,9.90
2017-10-21T06:15:27.046Z,9.00
2017-10-21T06:17:55.932Z,10.87
2017-10-21T06:20:24.790Z,9.97
2017-10-21T06:22:53.663Z,11.60
2017-10-21T06:25:22.538Z,10.17
2017-10-21T06:27:51.407Z,12.23
2017-10-21T06:30:20.259Z,12.77
2017-10-21T06:32:49.130Z,12.50
2017-10-21T06:35:18.008Z,10.90
2017-10-21T06:37:46.878Z,11.90
2017-10-21T06:40:15.745Z,11.03
2017-10-21T06:42:44.654Z,11.67
2017-10-21T06:45:13.502Z,12.03
2017-10-21T06:47:42.345Z,12.03
2017-10-21T06:50:11.217Z,12.00
2017-10-21T06:52:40.071Z,15.03
2017-10-21T06:55:08.938Z,15.83
2017-10-21T06:57:37.791Z,11.53
2017-10-21T07:00:06.703Z,13.33
2017-10-21T07:02:35.686Z,11.27
2017-10-21T07:05:04.581Z,10.27
2017-10-21T07:07:33.493Z,10.00
2017-10-21T07:10:02.359Z,15.70
2017-10-21T07:12:31.232Z,19.70
2017-10-21T07:15:00.095Z,11.70
2017-10-21T07:17:28.982Z,11.77
2017-10-21T07:19:57.852Z,11.30
2017-10-21T07:22:26.755Z,11.27
2017-10-21T07:24:55.625Z,11.33
2017-10-21T07:27:24.493Z,12.70
2017-10-21T07:29:53.350Z,11.70
2017-10-21T07:32:22.214Z,12.57
2017-10-21T07:34:51.086Z,10.50
2017-10-21T07:37:19.998Z,11.30
2017-10-21T07:39:48.870Z,11.30
2017-10-21T07:42:17.754Z,10.50
2017-10-21T07:44:46.630Z,10.20
2017-10-21T07:47:15.510Z,11.20
2017-10-21T07:49:44.355Z,10.87
2017-10-21T07:52:13.256Z,10.20
2017-10-21T07:54:42.115Z,11.67
2017-10-21T07:57:10.990Z,11.13
2017-10-21T07:59:39.848Z,12.07
2017-10-21T08:02:08.724Z,10.43
2017-10-21T08:04:37.603Z,10.43
2017-10-21T08:07:06.501Z,10.10
2017-10-21T08:09:35.381Z,9.50
2017-10-21T08:12:04.234Z,9.83
2017-10-21T08:14:33.108Z,9.73
2017-10-21T08:17:01.970Z,10.83
2017-10-21T08:19:30.870Z,11.03
2017-10-21T08:21:59.719Z,11.13
2017-10-21T08:24:28.607Z,9.97
2017-10-21T08:26:57.491Z,9.43
2017-10-21T08:29:26.363Z,10.53
2017-10-21T08:31:55.234Z,19.37
2017-10-21T08:34:24.126Z,23.63
2017-10-21T08:36:53.531Z,19.77
2017-10-21T08:39:22.423Z,18.10
2017-10-21T08:41:51.295Z,10.57
2017-10-21T08:44:20.182Z,9.70
2017-10-21T08:46:50.017Z,10.63
2017-10-21T08:49:18.905Z,10.50
2017-10-21T08:51:47.767Z,9.90
2017-10-21T08:54:16.687Z,10.17
2017-10-21T08:56:45.574Z,11.40
2017-10-21T08:59:14.446Z,10.23
2017-10-21T09:01:43.328Z,9.43
2017-10-21T09:04:12.285Z,9.90
2017-10-21T09:06:41.140Z,10.17
2017-10-21T09:09:10.112Z,10.37
2017-10-21T09:11:38.975Z,8.83
2017-10-21T09:14:07.830Z,10.10
2017-10-21T09:16:36.706Z,10.67
2017-10-21T09:19:05.698Z,9.60
2017-10-21T09:21:34.572Z,8.67
2017-10-21T09:24:03.430Z,9.20
2017-10-21T09:26:32.511Z,10.17
2017-10-21T09:29:01.406Z,23.73
2017-10-21T09:31:30.276Z,18.50
2017-10-21T09:33:59.165Z,20.30
2017-10-21T09:36:28.024Z,11.13
2017-10-21T09:38:56.923Z,9.63
2017-10-21T09:41:25.794Z,10.30
2017-10-21T09:43:54.666Z,9.70
2017-10-21T09:46:23.517Z,10.17
2017-10-21T09:48:52.506Z,9.60
2017-10-21T09:51:21.405Z,10.00
2017-10-21T09:53:50.283Z,10.43
2017-10-21T09:56:19.166Z,9.17
2017-10-21T09:58:48.041Z,9.50
2017-10-21T10:01:16.914Z,10.43
2017-10-21T10:03:45.786Z,9.83
2017-10-21T10:06:14.655Z,9.60
2017-10-21T10:08:43.509Z,10.10
2017-10-21T10:11:12.431Z,9.50
2017-10-21T10:13:41.314Z,10.30
2017-10-21T10:16:10.218Z,9.90
2017-10-21T10:18:39.091Z,11.27
2017-10-21T10:21:08.062Z,10.27
2017-10-21T10:23:36.974Z,21.40
2017-10-21T10:26:05.830Z,35.13
2017-10-21T10:28:34.703Z,14.27
2017-10-21T10:31:03.567Z,30.50
2017-10-21T10:33:32.439Z,10.37
2017-10-21T10:36:05.162Z,9.30
2017-10-21T10:38:34.051Z,10.67
2017-10-21T10:41:02.919Z,10.27
2017-10-21T10:43:31.767Z,9.50
2017-10-21T10:46:00.742Z,9.90
2017-10-21T10:48:30.320Z,10.70
2017-10-21T10:50:59.184Z,9.13
2017-10-21T10:53:28.091Z,9.43
2017-10-21T10:55:56.970Z,8.87
2017-10-21T10:58:25.818Z,8.97
2017-10-21T11:00:54.695Z,9.53
2017-10-21T11:03:23.567Z,10.27
2017-10-21T11:05:52.447Z,10.60
2017-10-21T11:08:21.298Z,10.30
2017-10-21T11:10:50.216Z,9.50
2017-10-21T11:13:19.085Z,10.60
2017-10-21T11:15:47.948Z,10.37
2017-10-21T11:18:16.895Z,9.97
2017-10-21T11:20:45.823Z,10.93
2017-10-21T11:23:14.710Z,9.37
2017-10-21T11:25:43.634Z,9.40
2017-10-21T11:28:12.527Z,10.63
2017-10-21T11:30:41.447Z,9.87
2017-10-21T11:33:10.299Z,9.70
2017-10-21T11:35:39.155Z,9.60
2017-10-21T11:38:08.020Z,10.20
2017-10-21T11:40:36.889Z,9.67
2017-10-21T11:43:05.735Z,9.00
2017-10-21T11:45:34.603Z,8.37
2017-10-21T11:48:03.455Z,9.30
2017-10-21T11:50:32.344Z,9.00
2017-10-21T11:53:01.202Z,9.20
2017-10-21T11:55:30.078Z,9.17
2017-10-21T11:57:58.936Z,8.87
2017-10-21T12:00:27.860Z,8.53
2017-10-21T12:02:56.760Z,8.47
2017-10-21T12:05:25.619Z,8.63
2017-10-21T12:07:54.521Z,7.57
2017-10-21T12:10:23.387Z,8.10
2017-10-21T12:12:52.240Z,7.47
2017-10-21T12:15:21.118Z,7.80
2017-10-21T12:17:50.005Z,7.17
2017-10-21T12:20:18.931Z,8.23
2017-10-21T12:22:47.777Z,8.90
2017-10-21T12:25:16.646Z,7.07
2017-10-21T12:27:45.522Z,8.17
2017-10-21T12:30:14.436Z,7.90
2017-10-21T12:32:43.294Z,8.20
2017-10-21T12:35:12.238Z,8.10
2017-10-21T12:37:41.178Z,7.67
2017-10-21T12:40:10.108Z,7.40
2017-10-21T12:42:38.965Z,8.23
2017-10-21T12:45:07.814Z,7.40
2017-10-21T12:47:36.678Z,7.37
2017-10-21T12:50:05.534Z,6.73
2017-10-21T12:52:34.439Z,6.30
2017-10-21T12:55:03.304Z,6.10
2017-10-21T12:57:32.156Z,6.50
2017-10-21T13:00:01.047Z,6.17
2017-10-21T13:02:29.920Z,6.40
2017-10-21T13:04:58.787Z,5.97
2017-10-21T13:07:27.658Z,5.90
2017-10-21T13:09:56.523Z,6.47
2017-10-21T13:12:25.398Z,5.40
2017-10-21T13:14:54.258Z,4.70
2017-10-21T13:17:23.124Z,4.80
2017-10-21T13:19:51.985Z,5.00
2017-10-21T13:22:20.874Z,4.30
2017-10-21T13:24:49.750Z,4.20
2017-10-21T13:27:18.602Z,4.53
2017-10-21T13:29:47.462Z,4.27
2017-10-21T13:32:16.358Z,4.30
2017-10-21T13:34:45.241Z,4.83
2017-10-21T13:37:14.098Z,4.50
2017-10-21T13:39:42.990Z,4.00
2017-10-21T13:42:11.945Z,5.30
2017-10-21T13:44:40.822Z,4.43
2017-10-21T13:47:09.678Z,4.53
2017-10-21T13:49:38.575Z,4.00
2017-10-21T13:52:07.440Z,5.27
2017-10-21T13:54:36.294Z,5.00
2017-10-21T13:57:05.167Z,5.03
2017-10-21T13:59:34.025Z,5.07
2017-10-21T14:02:02.888Z,5.27
2017-10-21T14:04:31.767Z,4.70
2017-10-21T14:07:00.657Z,4.30
2017-10-21T14:09:29.547Z,5.63
2017-10-21T14:11:58.434Z,4.90
2017-10-21T14:14:27.327Z,4.30
2017-10-21T14:16:56.166Z,4.77
2017-10-21T14:19:25.039Z,4.70
2017-10-21T14:21:53.877Z,4.93
2017-10-21T14:24:22.747Z,4.17
2017-10-21T14:26:51.594Z,3.83
2017-10-21T14:29:20.518Z,4.20
2017-10-21T14:31:49.358Z,5.17
2017-10-21T14:34:18.235Z,4.70
2017-10-21T14:36:47.096Z,4.93
2017-10-21T14:39:15.978Z,4.33
2017-10-21T14:41:44.838Z,4.33
2017-10-21T14:44:13.714Z,4.27
2017-10-21T14:46:42.623Z,4.30
2017-10-21T14:49:11.485Z,4.57
2017-10-21T14:51:40.379Z,4.67
2017-10-21T14:54:09.246Z,5.07
2017-10-21T14:56:38.131Z,8.83
2017-10-21T14:59:07.013Z,5.50
2017-10-21T15:01:35.886Z,4.60
2017-10-21T15:04:04.764Z,4.90
2017-10-21T15:06:33.642Z,5.13
2017-10-21T15:09:02.506Z,4.87
2017-10-21T15:11:31.362Z,4.43
2017-10-21T15:14:00.255Z,5.27
2017-10-21T15:16:29.147Z,4.30
2017-10-21T15:18:58.012Z,5.53
2017-10-21T15:21:26.875Z,5.00
2017-10-21T15:23:55.761Z,5.30
2017-10-21T15:26:24.606Z,5.20
2017-10-21T15:28:53.456Z,5.20
2017-10-21T15:31:22.318Z,5.63
2017-10-21T15:33:51.172Z,5.13
2017-10-21T15:36:20.035Z,5.97
2017-10-21T15:38:48.898Z,4.90
2017-10-21T15:41:17.763Z,5.50
2017-10-21T15:43:46.624Z,4.90
2017-10-21T15:46:15.498Z,5.97
2017-10-21T15:48:44.373Z,5.90
2017-10-21T15:51:13.316Z,5.30
2017-10-21T15:53:42.171Z,5.80
2017-10-21T15:56:11.030Z,4.93
2017-10-21T15:58:39.900Z,5.83
2017-10-21T16:01:08.783Z,5.90
2017-10-21T16:03:37.646Z,5.60
2017-10-21T16:06:06.514Z,5.83
2017-10-21T16:08:35.411Z,5.73
2017-10-21T16:11:04.258Z,6.93
2017-10-21T16:13:33.150Z,6.57
2017-10-21T16:16:02.062Z,6.50
2017-10-21T16:18:30.930Z,8.00
2017-10-21T16:20:59.798Z,8.70
2017-10-21T16:23:28.646Z,10.50
2017-10-21T16:25:57.512Z,11.30
2017-10-21T16:28:26.387Z,10.40
2017-10-21T16:30:55.255Z,9.50
2017-10-21T16:33:24.104Z,8.80
2017-10-21T16:35:52.997Z,9.77
2017-10-21T16:38:21.852Z,9.13
2017-10-21T16:40:50.715Z,9.10
2017-10-21T16:43:19.608Z,8.97
2017-10-21T16:45:48.489Z,8.10
2017-10-21T16:48:17.360Z,8.23
2017-10-21T16:50:46.240Z,9.07
2017-10-21T16:53:15.113Z,8.70
2017-10-21T16:55:43.961Z,9.47
2017-10-21T16:58:13.140Z,9.10
2017-10-21T17:00:41.991Z,9.87
2017-10-21T17:03:10.880Z,10.23
2017-10-21T17:05:39.732Z,8.30
2017-10-21T17:08:08.588Z,8.40
2017-10-21T17:10:37.470Z,8.17
2017-10-21T17:13:06.349Z,8.30
2017-10-21T17:15:35.211Z,8.80
2017-10-21T17:18:04.070Z,8.63
2017-10-21T17:20:32.946Z,39.50
2017-10-21T17:23:01.796Z,16.70
2017-10-21T17:25:30.713Z,12.10
2017-10-21T17:27:59.580Z,11.10
2017-10-21T17:30:28.442Z,11.30
2017-10-21T17:32:57.339Z,16.50
2017-10-21T17:35:26.207Z,12.93
2017-10-21T17:37:55.091Z,11.47
2017-10-21T17:40:23.935Z,10.73
2017-10-21T17:42:52.799Z,12.63
2017-10-21T17:45:21.654Z,14.10
2017-10-21T17:47:50.535Z,12.73
2017-10-21T17:50:19.388Z,9.27
2017-10-21T17:52:48.279Z,10.03
2017-10-21T17:55:17.149Z,10.60
2017-10-21T17:57:46.005Z,11.27
2017-10-21T18:00:14.918Z,17.63
2017-10-21T18:02:43.770Z,15.50
2017-10-21T18:05:12.634Z,13.90
2017-10-21T18:07:41.532Z,11.77
2017-10-21T18:10:10.411Z,12.03
2017-10-21T18:12:39.273Z,13.40
2017-10-21T18:15:08.168Z,10.60
2017-10-21T18:17:37.056Z,10.00
2017-10-21T18:20:06.073Z,10.13
2017-10-21T18:22:34.919Z,12.87
2017-10-21T18:25:03.775Z,10.53
2017-10-21T18:27:32.647Z,10.13
2017-10-21T18:30:01.534Z,9.67
2017-10-21T18:32:30.412Z,9.70
2017-10-21T18:34:59.272Z,10.10
2017-10-21T18:37:28.219Z,11.50
2017-10-21T18:39:57.170Z,9.30
2017-10-21T18:42:26.053Z,9.13
2017-10-21T18:44:54.909Z,11.60
2017-10-21T18:47:23.815Z,10.77
2017-10-21T18:49:52.673Z,11.57
2017-10-21T18:52:21.570Z,9.70
2017-10-21T18:54:50.444Z,10.30
2017-10-21T18:57:19.315Z,9.73
2017-10-21T18:59:48.183Z,8.57
2017-10-21T19:02:17.042Z,8.23
2017-10-21T19:04:45.903Z,9.43
2017-10-21T19:07:14.751Z,11.00
2017-10-21T19:09:43.835Z,10.47
2017-10-21T19:12:12.699Z,10.10
2017-10-21T19:14:41.558Z,10.33
2017-10-21T19:17:10.432Z,11.73
2017-10-21T19:19:39.298Z,11.80
2017-10-21T19:22:08.202Z,9.27
2017-10-21T19:24:37.069Z,9.20
2017-10-21T19:27:05.943Z,9.50
2017-10-21T19:29:34.802Z,8.97
2017-10-21T19:32:03.674Z,8.30
2017-10-21T19:34:32.520Z,10.13
2017-10-21T19:37:01.533Z,10.77
2017-10-21T19:39:30.430Z,9.40
2017-10-21T19:41:59.275Z,9.60
2017-10-21T19:44:28.148Z,9.47
2017-10-21T19:46:57.059Z,9.43
2017-10-21T19:49:25.956Z,9.07
2017-10-21T19:51:54.814Z,10.03
2017-10-21T19:54:23.830Z,9.20
2017-10-21T19:56:52.687Z,10.50
2017-10-21T19:59:21.553Z,11.57
2017-10-21T20:01:50.401Z,10.40
2017-10-21T20:04:19.267Z,10.20
2017-10-21T20:06:48.113Z,10.40
2017-10-21T20:09:17.009Z,7.90
2017-10-21T20:11:45.853Z,9.80
2017-10-21T20:14:14.712Z,9.60
2017-10-21T20:16:43.587Z,9.63
2017-10-21T20:19:12.450Z,9.80
2017-10-21T20:21:41.377Z,11.30
2017-10-21T20:24:10.228Z,10.73
2017-10-21T20:26:39.108Z,10.63
2017-10-21T20:29:07.969Z,10.67
2017-10-21T20:31:36.855Z,9.77
2017-10-21T20:34:05.701Z,9.60
2017-10-21T20:36:34.575Z,11.30
2017-10-21T20:39:03.463Z,11.53
2017-10-21T20:41:32.316Z,10.60
2017-10-21T20:44:01.257Z,10.50
2017-10-21T20:46:30.131Z,12.43
2017-10-21T20:48:59.046Z,11.40
2017-10-21T20:51:27.906Z,13.70
2017-10-21T20:53:56.783Z,11.30
2017-10-21T20:56:25.630Z,12.00
2017-10-21T20:58:54.498Z,11.47
2017-10-21T21:01:23.362Z,12.57
2017-10-21T21:03:52.754Z,11.50
2017-10-21T21:06:21.611Z,10.87
2017-10-21T21:08:50.457Z,13.30
2017-10-21T21:11:19.353Z,11.40
2017-10-21T21:13:48.211Z,10.33
2017-10-21T21:16:17.075Z,12.67
2017-10-21T21:18:45.967Z,11.90
2017-10-21T21:21:14.827Z,11.63
2017-10-21T21:23:43.685Z,16.73
2017-10-21T21:26:12.615Z,12.13
2017-10-21T21:28:41.481Z,12.30
2017-10-21T21:31:10.330Z,11.60
2017-10-21T21:33:39.217Z,11.30
2017-10-21T21:36:08.072Z,11.93
2017-10-21T21:38:36.947Z,10.87
2017-10-21T21:41:05.808Z,9.67
2017-10-21T21:43:34.674Z,8.53
2017-10-21T21:46:03.660Z,8.20
2017-10-21T21:48:32.541Z,6.00
2017-10-21T21:51:01.386Z,6.03
2017-10-21T21:53:30.391Z,2.60
2017-10-21T21:55:59.286Z,1.63
2017-10-21T21:58:28.134Z,1.97
2017-10-21T22:00:57.007Z,1.20
2017-10-21T22:03:25.851Z,1.53
2017-10-21T22:05:54.771Z,1.30
2017-10-21T22:08:23.620Z,1.60
2017-10-21T22:10:52.481Z,1.10
2017-10-21T22:13:21.337Z,1.40
2017-10-21T22:15:50.700Z,1.10
2017-10-21T22:18:19.580Z,1.00
2017-10-21T22:20:48.433Z,1.07
2017-10-21T22:23:17.289Z,1.23
2017-10-21T22:25:46.196Z,2.00
2017-10-21T22:28:15.064Z,1.47
2017-10-21T22:30:43.927Z,1.33
2017-10-21T22:33:12.790Z,1.27
2017-10-21T22:35:41.635Z,1.43
2017-10-21T22:38:10.848Z,1.20
2017-10-21T22:40:39.691Z,1.37
2017-10-21T22:43:08.544Z,1.40
2017-10-21T22:45:37.401Z,1.40
2017-10-21T22:48:06.264Z,1.00
2017-10-21T22:50:35.137Z,1.20
2017-10-21T22:53:04.007Z,1.37
2017-10-21T22:55:32.859Z,1.93
2017-10-21T22:58:01.731Z,1.13
2017-10-21T23:00:30.574Z,1.10
2017-10-21T23:02:59.436Z,1.40
2017-10-21T23:05:28.290Z,1.60
2017-10-21T23:07:57.167Z,1.10
2017-10-21T23:10:26.012Z,1.10
2017-10-21T23:12:54.902Z,1.30
2017-10-21T23:15:23.780Z,1.20
2017-10-21T23:17:52.635Z,1.17
2017-10-21T23:20:21.692Z,1.03
2017-10-21T23:22:50.547Z,1.10
2017-10-21T23:25:19.407Z,1.80
2017-10-21T23:27:48.267Z,1.70
2017-10-21T23:30:17.136Z,1.10
2017-10-21T23:32:45.975Z,1.73
2017-10-21T23:35:14.854Z,1.00
2017-10-21T23:37:43.779Z,1.27
2017-10-21T23:40:12.643Z,1.30
2017-10-21T23:42:41.506Z,1.43
2017-10-21T23:45:10.373Z,1.40
2017-10-21T23:47:39.263Z,1.67
2017-10-21T23:50:08.137Z,1.63
2017-10-21T23:52:36.994Z,1.30
2017-10-21T23:55:05.864Z,1.60
2017-10-21T23:57:34.741Z,1.50
